createdAt,value
2023-05-11T00:00:17.611Z,966.05
2023-05-11T00:01:17.051Z,966.07
2023-05-11T00:02:17.291Z,966.09
2023-05-11T00:03:17.231Z,966.07
2023-05-11T00:04:17.510Z,966.07
2023-05-11T00:05:16.995Z,966.06
2023-05-11T00:06:17.185Z,966.06
2023-05-11T00:07:16.999Z,966.08
2023-05-11T00:08:17.517Z,966.03
2023-05-11T00:09:16.995Z,966.07
2023-05-11T00:10:17.305Z,966.03
2023-05-11T00:11:16.928Z,966.05
2023-05-11T00:12:17.125Z,966.03
2023-05-11T00:13:17.371Z,966.06
2023-05-11T00:14:16.906Z,965.99
2023-05-11T00:15:17.024Z,966.03
2023-05-11T00:16:16.942Z,966.04
2023-05-11T00:17:17.051Z,966.07
2023-05-11T00:18:17.304Z,966.00
2023-05-11T00:19:16.964Z,966.01
2023-05-11T00:20:17.128Z,966.03
2023-05-11T00:21:16.801Z,966.01
2023-05-11T00:22:17.119Z,965.99
2023-05-11T00:23:16.797Z,966.00
2023-05-11T00:24:17.040Z,965.99
2023-05-11T00:25:16.764Z,966.01
2023-05-11T00:26:17.019Z,965.99
2023-05-11T00:27:16.710Z,966.00
2023-05-11T00:28:17.084Z,966.02
2023-05-11T00:29:16.724Z,965.99
2023-05-11T00:30:17.310Z,966.01
2023-05-11T00:31:16.731Z,966.00
2023-05-11T00:32:16.842Z,965.99
2023-05-11T00:33:16.675Z,966.00
2023-05-11T00:34:17.875Z,965.98
2023-05-11T00:35:16.630Z,965.96
2023-05-11T00:36:16.876Z,965.97
2023-05-11T00:37:16.608Z,965.97
2023-05-11T00:38:16.872Z,965.96
2023-05-11T00:39:16.614Z,965.98
2023-05-11T00:40:17.107Z,965.96
2023-05-11T00:41:16.585Z,965.95
2023-05-11T00:42:16.702Z,965.95
2023-05-11T00:43:16.531Z,965.95
2023-05-11T00:44:16.706Z,965.92
2023-05-11T00:45:16.540Z,965.94
2023-05-11T00:46:16.750Z,965.91
2023-05-11T00:47:16.615Z,965.93
2023-05-11T00:48:16.727Z,965.90
2023-05-11T00:49:16.445Z,965.87
2023-05-11T00:50:17.127Z,965.88
2023-05-11T00:51:16.416Z,965.84
2023-05-11T00:52:16.667Z,965.85
2023-05-11T00:53:16.445Z,965.84
2023-05-11T00:54:16.566Z,965.82
2023-05-11T00:55:42.480Z,965.82
2023-05-11T00:56:16.384Z,965.82
2023-05-11T00:57:16.413Z,965.83
2023-05-11T00:58:16.467Z,965.86
2023-05-11T00:59:16.564Z,965.85
2023-05-11T01:00:16.430Z,965.84
2023-05-11T01:01:16.622Z,965.83
2023-05-11T01:02:16.412Z,965.82
2023-05-11T01:03:16.672Z,965.84
2023-05-11T01:04:16.266Z,965.82
2023-05-11T01:05:16.592Z,965.79
2023-05-11T01:06:16.238Z,965.76
2023-05-11T01:07:16.523Z,965.76
2023-05-11T01:08:16.232Z,965.76
2023-05-11T01:09:16.435Z,965.74
2023-05-11T01:10:16.408Z,965.75
2023-05-11T01:11:16.596Z,965.75
2023-05-11T01:12:16.206Z,965.74
2023-05-11T01:13:16.329Z,965.75
2023-05-11T01:14:16.181Z,965.77
2023-05-11T01:15:16.313Z,965.80
2023-05-11T01:16:16.141Z,965.81
2023-05-11T01:17:16.225Z,965.81
2023-05-11T01:18:16.132Z,965.82
2023-05-11T01:19:16.228Z,965.83
2023-05-11T01:20:16.209Z,965.82
2023-05-11T01:21:16.265Z,965.86
2023-05-11T01:22:16.033Z,965.84
2023-05-11T01:23:16.217Z,965.84
2023-05-11T01:24:16.036Z,965.84
2023-05-11T01:25:16.065Z,965.84
2023-05-11T01:26:16.012Z,965.83
2023-05-11T01:27:16.182Z,965.85
2023-05-11T01:28:16.018Z,965.81
2023-05-11T01:29:16.122Z,965.88
2023-05-11T01:30:16.096Z,965.83
2023-05-11T01:31:16.064Z,965.86
2023-05-11T01:32:15.955Z,965.85
2023-05-11T01:33:16.014Z,965.86
2023-05-11T01:34:16.136Z,965.85
2023-05-11T01:35:16.172Z,965.85
2023-05-11T01:36:15.921Z,965.85
2023-05-11T01:37:16.030Z,965.89
2023-05-11T01:38:15.856Z,965.85
2023-05-11T01:39:15.996Z,965.86
2023-05-11T01:40:16.268Z,965.82
2023-05-11T01:41:15.827Z,965.83
2023-05-11T01:42:15.877Z,965.82
2023-05-11T01:43:15.789Z,965.83
2023-05-11T01:44:16.003Z,965.83
2023-05-11T01:45:15.801Z,965.85
2023-05-11T01:46:15.889Z,965.86
2023-05-11T01:47:17.326Z,965.83
2023-05-11T01:48:15.720Z,965.88
2023-05-11T01:49:15.707Z,965.87
2023-05-11T01:50:15.774Z,965.87
2023-05-11T01:51:15.742Z,965.89
2023-05-11T01:52:15.735Z,965.87
2023-05-11T01:53:15.851Z,965.88
2023-05-11T01:54:15.660Z,965.87
2023-05-11T01:55:15.655Z,965.86
2023-05-11T01:56:15.654Z,965.88
2023-05-11T01:57:15.668Z,965.90
2023-05-11T01:58:15.641Z,965.88
2023-05-11T01:59:15.586Z,965.87
2023-05-11T02:00:15.694Z,965.91
2023-05-11T02:01:15.789Z,965.92
2023-05-11T02:02:15.583Z,965.92
2023-05-11T02:03:15.718Z,965.92
2023-05-11T02:04:15.648Z,965.93
2023-05-11T02:05:15.685Z,965.90
2023-05-11T02:06:15.505Z,965.93
2023-05-11T02:07:15.670Z,965.93
2023-05-11T02:08:15.476Z,965.94
2023-05-11T02:09:15.635Z,965.90
2023-05-11T02:10:15.538Z,965.90
2023-05-11T02:11:15.462Z,965.87
2023-05-11T02:12:15.452Z,965.88
2023-05-11T02:13:15.511Z,965.87
2023-05-11T02:14:15.377Z,965.87
2023-05-11T02:15:15.372Z,965.86
2023-05-11T02:16:15.535Z,965.88
2023-05-11T02:17:15.354Z,965.88
2023-05-11T02:18:15.565Z,965.88
2023-05-11T02:19:15.330Z,965.87
2023-05-11T02:20:15.526Z,965.89
2023-05-11T02:21:15.332Z,965.89
2023-05-11T02:22:15.298Z,965.90
2023-05-11T02:23:15.370Z,965.91
2023-05-11T02:24:15.270Z,965.91
2023-05-11T02:25:15.367Z,965.85
2023-05-11T02:26:15.249Z,965.86
2023-05-11T02:27:15.305Z,965.89
2023-05-11T02:28:15.208Z,965.90
2023-05-11T02:29:15.281Z,965.85
2023-05-11T02:30:15.211Z,965.87
2023-05-11T02:31:15.221Z,965.84
2023-05-11T02:32:15.160Z,965.85
2023-05-11T02:33:15.199Z,965.83
2023-05-11T02:34:15.170Z,965.87
2023-05-11T02:35:15.208Z,965.85
2023-05-11T02:36:15.124Z,965.84
2023-05-11T02:37:15.133Z,965.84
2023-05-11T02:38:15.074Z,965.87
2023-05-11T02:39:15.135Z,965.84
2023-05-11T02:40:15.133Z,965.87
2023-05-11T02:41:15.156Z,965.87
2023-05-11T02:42:15.224Z,965.87
2023-05-11T02:43:14.992Z,965.84
2023-05-11T02:44:15.185Z,965.85
2023-05-11T02:45:15.013Z,965.83
2023-05-11T02:46:15.296Z,965.87
2023-05-11T02:47:14.997Z,965.82
2023-05-11T02:48:14.972Z,965.85
2023-05-11T02:49:15.045Z,965.85
2023-05-11T02:50:14.930Z,965.79
2023-05-11T02:51:15.019Z,965.84
2023-05-11T02:52:14.934Z,965.84
2023-05-11T02:53:14.923Z,965.82
2023-05-11T02:54:14.880Z,965.82
2023-05-11T02:55:14.953Z,965.80
2023-05-11T02:56:14.876Z,965.85
2023-05-11T02:57:14.887Z,965.83
2023-05-11T02:58:14.895Z,965.80
2023-05-11T02:59:14.862Z,965.82
2023-05-11T03:00:14.814Z,965.82
2023-05-11T03:01:14.898Z,965.83
2023-05-11T03:02:14.902Z,965.80
2023-05-11T03:03:14.943Z,965.81
2023-05-11T03:04:14.788Z,965.80
2023-05-11T03:05:14.867Z,965.79
2023-05-11T03:06:14.713Z,965.75
2023-05-11T03:07:14.846Z,965.78
2023-05-11T03:08:14.706Z,965.72
2023-05-11T03:09:14.774Z,965.72
2023-05-11T03:10:14.678Z,965.74
2023-05-11T03:11:14.787Z,965.71
2023-05-11T03:12:14.664Z,965.71
2023-05-11T03:13:14.816Z,965.73
2023-05-11T03:14:14.611Z,965.72
2023-05-11T03:15:14.676Z,965.71
2023-05-11T03:16:14.641Z,965.75
2023-05-11T03:17:14.601Z,965.72
2023-05-11T03:18:14.595Z,965.73
2023-05-11T03:19:14.607Z,965.71
2023-05-11T03:20:14.581Z,965.70
2023-05-11T03:21:14.605Z,965.73
2023-05-11T03:22:14.526Z,965.72
2023-05-11T03:23:14.584Z,965.74
2023-05-11T03:24:14.499Z,965.77
2023-05-11T03:25:14.542Z,965.74
2023-05-11T03:26:14.468Z,965.72
2023-05-11T03:27:14.565Z,965.72
2023-05-11T03:28:14.587Z,965.71
2023-05-11T03:29:14.434Z,965.73
2023-05-11T03:30:14.508Z,965.70
2023-05-11T03:31:14.395Z,965.70
2023-05-11T03:32:14.554Z,965.71
2023-05-11T03:33:14.493Z,965.68
2023-05-11T03:34:14.367Z,965.69
2023-05-11T03:35:14.418Z,965.67
2023-05-11T03:36:14.370Z,965.66
2023-05-11T03:37:14.570Z,965.65
2023-05-11T03:38:14.319Z,965.63
2023-05-11T03:39:14.487Z,965.62
2023-05-11T03:40:14.418Z,965.61
2023-05-11T03:41:14.361Z,965.63
2023-05-11T03:42:14.265Z,965.62
2023-05-11T03:43:14.365Z,965.61
2023-05-11T03:44:14.272Z,965.64
2023-05-11T03:45:14.268Z,965.65
2023-05-11T03:46:14.370Z,965.63
2023-05-11T03:47:14.307Z,965.64
2023-05-11T03:48:14.203Z,965.61
2023-05-11T03:49:14.201Z,965.60
2023-05-11T03:50:14.199Z,965.61
2023-05-11T03:51:14.239Z,965.60
2023-05-11T03:52:14.168Z,965.59
2023-05-11T03:53:14.374Z,965.58
2023-05-11T03:54:14.119Z,965.52
2023-05-11T03:55:14.224Z,965.54
2023-05-11T03:56:14.098Z,965.53
2023-05-11T03:57:14.334Z,965.53
2023-05-11T03:58:14.068Z,965.56
2023-05-11T03:59:14.093Z,965.55
2023-05-11T04:00:14.034Z,965.55
2023-05-11T04:01:14.072Z,965.57
2023-05-11T04:02:14.154Z,965.53
2023-05-11T04:03:14.186Z,965.54
2023-05-11T04:04:14.095Z,965.52
2023-05-11T04:05:13.979Z,965.53
2023-05-11T04:06:14.038Z,965.51
2023-05-11T04:07:13.979Z,965.50
2023-05-11T04:08:14.160Z,965.52
2023-05-11T04:09:13.945Z,965.54
2023-05-11T04:10:13.925Z,965.53
2023-05-11T04:11:13.971Z,965.51
2023-05-11T04:12:13.945Z,965.51
2023-05-11T04:13:14.045Z,965.50
2023-05-11T04:14:13.926Z,965.52
2023-05-11T04:15:13.985Z,965.53
2023-05-11T04:16:13.914Z,965.53
2023-05-11T04:17:13.984Z,965.54
2023-05-11T04:18:13.834Z,965.52
2023-05-11T04:19:13.879Z,965.54
2023-05-11T04:20:13.808Z,965.55
2023-05-11T04:21:13.864Z,965.56
2023-05-11T04:22:13.758Z,965.57
2023-05-11T04:23:13.839Z,965.60
2023-05-11T04:24:13.721Z,965.58
2023-05-11T04:25:13.791Z,965.60
2023-05-11T04:26:13.702Z,965.59
2023-05-11T04:27:13.752Z,965.58
2023-05-11T04:28:13.677Z,965.63
2023-05-11T04:29:13.845Z,965.62
2023-05-11T04:30:13.811Z,965.61
2023-05-11T04:31:13.653Z,965.61
2023-05-11T04:32:13.892Z,965.63
2023-05-11T04:33:13.599Z,965.63
2023-05-11T04:34:13.755Z,965.63
2023-05-11T04:35:13.610Z,965.62
2023-05-11T04:36:13.562Z,965.64
2023-05-11T04:37:13.718Z,965.61
2023-05-11T04:38:13.597Z,965.62
2023-05-11T04:39:13.629Z,965.61
2023-05-11T04:40:13.677Z,965.63
2023-05-11T04:41:13.505Z,965.62
2023-05-11T04:42:13.610Z,965.62
2023-05-11T04:43:13.452Z,965.59
2023-05-11T04:44:13.611Z,965.62
2023-05-11T04:45:13.496Z,965.63
2023-05-11T04:46:13.614Z,965.64
2023-05-11T04:47:13.438Z,965.64
2023-05-11T04:48:13.644Z,965.65
2023-05-11T04:49:13.387Z,965.63
2023-05-11T04:50:13.442Z,965.64
2023-05-11T04:51:13.357Z,965.67
2023-05-11T04:52:13.447Z,965.66
2023-05-11T04:53:13.382Z,965.66
2023-05-11T04:54:13.766Z,965.66
2023-05-11T04:55:13.306Z,965.64
2023-05-11T04:56:13.520Z,965.67
2023-05-11T04:57:13.296Z,965.65
2023-05-11T04:58:13.486Z,965.69
2023-05-11T04:59:13.247Z,965.64
2023-05-11T05:00:13.517Z,965.65
2023-05-11T05:01:13.307Z,965.64
2023-05-11T05:02:13.261Z,965.64
2023-05-11T05:03:13.571Z,965.66
2023-05-11T05:04:13.294Z,965.64
2023-05-11T05:05:13.317Z,965.65
2023-05-11T05:06:13.356Z,965.65
2023-05-11T05:07:13.164Z,965.66
2023-05-11T05:08:13.404Z,965.67
2023-05-11T05:09:13.125Z,965.65
2023-05-11T05:10:13.264Z,965.67
2023-05-11T05:11:13.177Z,965.67
2023-05-11T05:12:13.100Z,965.68
2023-05-11T05:13:13.194Z,965.71
2023-05-11T05:14:13.157Z,965.66
2023-05-11T05:15:13.161Z,965.69
2023-05-11T05:16:13.217Z,965.72
2023-05-11T05:17:13.097Z,965.67
2023-05-11T05:18:13.249Z,965.67
2023-05-11T05:19:13.086Z,965.72
2023-05-11T05:20:13.130Z,965.65
2023-05-11T05:21:12.980Z,965.70
2023-05-11T05:22:13.041Z,965.69
2023-05-11T05:23:12.936Z,965.66
2023-05-11T05:24:13.125Z,965.66
2023-05-11T05:25:13.027Z,965.64
2023-05-11T05:26:13.094Z,965.64
2023-05-11T05:27:12.885Z,965.67
2023-05-11T05:28:13.087Z,965.64
2023-05-11T05:29:12.869Z,965.63
2023-05-11T05:30:13.029Z,965.66
2023-05-11T05:31:12.905Z,965.66
2023-05-11T05:32:13.009Z,965.65
2023-05-11T05:33:12.877Z,965.68
2023-05-11T05:34:15.552Z,965.66
2023-05-11T05:35:12.952Z,965.66
2023-05-11T05:36:12.919Z,965.68
2023-05-11T05:37:13.184Z,965.68
2023-05-11T05:38:12.780Z,965.68
2023-05-11T05:39:12.850Z,965.66
2023-05-11T05:40:12.704Z,965.66
2023-05-11T05:41:13.177Z,965.68
2023-05-11T05:42:12.867Z,965.69
2023-05-11T05:43:12.707Z,965.69
2023-05-11T05:44:12.793Z,965.70
2023-05-11T05:45:14.741Z,965.72
2023-05-11T05:46:12.895Z,965.71
2023-05-11T05:47:12.898Z,965.74
2023-05-11T05:48:12.613Z,965.80
2023-05-11T05:49:12.974Z,965.71
2023-05-11T05:50:12.664Z,965.76
2023-05-11T05:51:13.056Z,965.77
2023-05-11T05:52:12.612Z,965.74
2023-05-11T05:53:12.773Z,965.76
2023-05-11T05:54:12.567Z,965.73
2023-05-11T05:55:12.778Z,965.76
2023-05-11T05:56:12.736Z,965.75
2023-05-11T05:57:15.057Z,965.78
2023-05-11T05:58:12.675Z,965.73
2023-05-11T05:59:12.772Z,965.75
2023-05-11T06:00:12.492Z,965.74
2023-05-11T06:01:12.537Z,965.76
2023-05-11T06:02:12.531Z,965.76
2023-05-11T06:03:12.567Z,965.77
2023-05-11T06:04:12.481Z,965.76
2023-05-11T06:05:12.584Z,965.78
2023-05-11T06:06:12.572Z,965.81
2023-05-11T06:07:12.624Z,965.77
2023-05-11T06:08:12.876Z,965.77
2023-05-11T06:09:12.365Z,965.80
2023-05-11T06:10:12.520Z,965.80
2023-05-11T06:11:12.398Z,965.83
2023-05-11T06:12:12.526Z,965.82
2023-05-11T06:13:12.308Z,965.82
2023-05-11T06:14:12.507Z,965.85
2023-05-11T06:15:12.362Z,965.84
2023-05-11T06:16:12.420Z,965.86
2023-05-11T06:17:12.269Z,965.84
2023-05-11T06:18:12.522Z,965.83
2023-05-11T06:19:12.278Z,965.85
2023-05-11T06:20:12.347Z,965.87
2023-05-11T06:21:12.230Z,965.83
2023-05-11T06:22:12.227Z,965.84
2023-05-11T06:23:12.204Z,965.84
2023-05-11T06:24:12.329Z,965.83
2023-05-11T06:25:12.198Z,965.85
2023-05-11T06:26:12.423Z,965.86
2023-05-11T06:27:12.138Z,965.86
2023-05-11T06:28:12.265Z,965.85
2023-05-11T06:29:12.255Z,965.86
2023-05-11T06:30:12.321Z,965.85
2023-05-11T06:31:12.447Z,965.82
2023-05-11T06:32:12.301Z,965.86
2023-05-11T06:33:12.096Z,965.88
2023-05-11T06:34:12.094Z,965.91
2023-05-11T06:35:12.107Z,965.90
2023-05-11T06:36:12.148Z,965.90
2023-05-11T06:37:11.992Z,965.89
2023-05-11T06:38:12.141Z,965.89
2023-05-11T06:39:12.209Z,965.90
2023-05-11T06:40:11.977Z,965.91
2023-05-11T06:41:12.137Z,965.89
2023-05-11T06:42:11.966Z,965.90
2023-05-11T06:43:12.085Z,965.89
2023-05-11T06:44:11.896Z,965.90
2023-05-11T06:45:12.029Z,965.89
2023-05-11T06:46:11.981Z,965.88
2023-05-11T06:47:12.057Z,965.87
2023-05-11T06:48:11.999Z,965.87
2023-05-11T06:49:12.025Z,965.86
2023-05-11T06:50:11.897Z,965.88
2023-05-11T06:51:11.922Z,965.85
2023-05-11T06:52:12.064Z,965.84
2023-05-11T06:53:11.941Z,965.81
2023-05-11T06:54:11.960Z,965.83
2023-05-11T06:55:11.877Z,965.87
2023-05-11T06:56:12.125Z,965.81
2023-05-11T06:57:14.419Z,965.84
2023-05-11T06:58:11.843Z,965.83
2023-05-11T06:59:12.014Z,965.86
2023-05-11T07:00:11.780Z,965.85
2023-05-11T07:01:11.969Z,965.84
2023-05-11T07:02:11.868Z,965.85
2023-05-11T07:03:11.909Z,965.84
2023-05-11T07:04:12.423Z,965.83
2023-05-11T07:05:12.216Z,965.83
2023-05-11T07:06:12.144Z,965.83
2023-05-11T07:07:12.285Z,965.85
2023-05-11T07:08:11.823Z,965.84
2023-05-11T07:09:12.596Z,965.82
2023-05-11T07:10:12.032Z,965.84
2023-05-11T07:11:11.646Z,965.80
2023-05-11T07:12:11.873Z,965.89
2023-05-11T07:13:12.106Z,965.84
2023-05-11T07:14:11.920Z,965.86
2023-05-11T07:15:11.779Z,965.87
2023-05-11T07:16:11.755Z,965.89
2023-05-11T07:17:11.833Z,965.91
2023-05-11T07:18:11.728Z,965.92
2023-05-11T07:19:12.273Z,965.89
2023-05-11T07:20:11.496Z,965.90
2023-05-11T07:21:17.620Z,965.92
2023-05-11T07:22:13.380Z,965.90
2023-05-11T07:23:11.411Z,965.96
2023-05-11T07:24:11.566Z,965.95
2023-05-11T07:25:11.513Z,965.94
2023-05-11T07:26:11.397Z,965.92
2023-05-11T07:27:11.403Z,965.93
2023-05-11T07:28:11.601Z,965.93
2023-05-11T07:29:11.467Z,965.95
2023-05-11T07:30:11.502Z,965.93
2023-05-11T07:31:11.357Z,965.92
2023-05-11T07:32:11.330Z,965.95
2023-05-11T07:33:11.621Z,965.92
2023-05-11T07:34:11.753Z,965.96
2023-05-11T07:35:11.973Z,965.95
2023-05-11T07:36:12.234Z,965.96
2023-05-11T07:37:11.822Z,965.95
2023-05-11T07:38:11.550Z,965.97
2023-05-11T07:39:11.555Z,965.97
2023-05-11T07:40:11.465Z,965.97
2023-05-11T07:41:12.611Z,965.97
2023-05-11T07:42:12.040Z,965.97
2023-05-11T07:43:11.501Z,965.99
2023-05-11T07:44:11.536Z,965.99
2023-05-11T07:45:11.176Z,965.99
2023-05-11T07:46:11.191Z,966.01
2023-05-11T07:47:11.182Z,966.01
2023-05-11T07:48:11.280Z,965.99
2023-05-11T07:49:17.126Z,965.99
2023-05-11T07:50:11.084Z,965.96
2023-05-11T07:51:11.145Z,965.95
2023-05-11T07:52:11.147Z,965.95
2023-05-11T07:53:11.203Z,965.94
2023-05-11T07:54:11.006Z,965.94
2023-05-11T07:55:11.138Z,965.91
2023-05-11T07:56:11.155Z,965.92
2023-05-11T07:57:11.010Z,965.92
2023-05-11T07:58:11.027Z,965.89
2023-05-11T07:59:10.979Z,965.89
2023-05-11T08:00:11.364Z,965.87
2023-05-11T08:01:11.014Z,965.93
2023-05-11T08:02:12.969Z,965.91
2023-05-11T08:03:11.037Z,965.89
2023-05-11T08:04:10.923Z,965.89
2023-05-11T08:05:11.022Z,965.91
2023-05-11T08:06:10.914Z,965.92
2023-05-11T08:07:10.968Z,965.92
2023-05-11T08:08:10.900Z,965.92
2023-05-11T08:09:10.949Z,965.90
2023-05-11T08:10:10.806Z,965.92
2023-05-11T08:11:10.920Z,965.90
2023-05-11T08:12:10.876Z,965.93
2023-05-11T08:13:10.830Z,965.94
2023-05-11T08:14:10.894Z,965.97
2023-05-11T08:15:10.816Z,965.96
2023-05-11T08:16:10.932Z,965.95
2023-05-11T08:17:10.771Z,965.94
2023-05-11T08:18:10.774Z,965.93
2023-05-11T08:19:10.890Z,965.93
2023-05-11T08:20:10.682Z,965.95
2023-05-11T08:21:10.787Z,965.93
2023-05-11T08:22:10.798Z,965.90
2023-05-11T08:23:10.718Z,965.93
2023-05-11T08:24:10.885Z,965.93
2023-05-11T08:25:10.762Z,965.93
2023-05-11T08:26:10.786Z,965.92
2023-05-11T08:27:10.612Z,965.91
2023-05-11T08:28:10.709Z,965.89
2023-05-11T08:29:10.712Z,965.91
2023-05-11T08:30:11.918Z,965.85
2023-05-11T08:31:10.699Z,965.89
2023-05-11T08:32:10.724Z,965.90
2023-05-11T08:33:25.899Z,965.89
2023-05-11T08:34:18.607Z,965.90
2023-05-11T08:35:10.779Z,965.92
2023-05-11T08:36:10.537Z,965.96
2023-05-11T08:37:10.571Z,965.94
2023-05-11T08:38:10.577Z,965.94
2023-05-11T08:39:10.863Z,965.98
2023-05-11T08:40:12.588Z,965.95
2023-05-11T08:41:10.449Z,965.93
2023-05-11T08:42:11.025Z,965.94
2023-05-11T08:43:10.753Z,965.95
2023-05-11T08:44:10.469Z,965.95
2023-05-11T08:45:10.718Z,965.94
2023-05-11T08:46:10.864Z,965.98
2023-05-11T08:47:22.707Z,965.98
2023-05-11T08:48:10.661Z,965.96
2023-05-11T08:49:10.540Z,965.94
2023-05-11T08:50:10.375Z,965.94
2023-05-11T08:51:10.581Z,965.94
2023-05-11T08:52:10.405Z,965.92
2023-05-11T08:53:10.639Z,965.95
2023-05-11T08:54:10.290Z,965.91
2023-05-11T08:55:10.513Z,965.93
2023-05-11T08:56:11.047Z,965.94
2023-05-11T08:57:10.362Z,965.90
2023-05-11T08:58:10.257Z,965.89
2023-05-11T08:59:10.422Z,965.90
2023-05-11T09:00:10.310Z,965.87
2023-05-11T09:01:10.813Z,965.86
2023-05-11T09:02:10.312Z,965.91
2023-05-11T09:03:10.351Z,965.92
2023-05-11T09:04:10.195Z,965.92
2023-05-11T09:05:10.316Z,965.89
2023-05-11T09:06:10.115Z,965.88
2023-05-11T09:07:10.181Z,965.91
2023-05-11T09:08:10.127Z,965.89
2023-05-11T09:09:10.213Z,965.91
2023-05-11T09:10:11.569Z,965.88
2023-05-11T09:11:10.272Z,965.91
2023-05-11T09:12:10.131Z,965.90
2023-05-11T09:13:10.270Z,965.90
2023-05-11T09:14:10.132Z,965.93
2023-05-11T09:15:10.034Z,965.92
2023-05-11T09:16:23.438Z,965.92
2023-05-11T09:17:10.061Z,965.94
2023-05-11T09:18:10.093Z,965.89
2023-05-11T09:19:10.588Z,965.88
2023-05-11T09:20:10.996Z,965.88
2023-05-11T09:21:10.085Z,965.84
2023-05-11T09:22:09.942Z,965.82
2023-05-11T09:23:10.099Z,965.83
2023-05-11T09:24:09.885Z,965.82
2023-05-11T09:25:09.928Z,965.83
2023-05-11T09:26:10.125Z,965.84
2023-05-11T09:27:10.105Z,965.83
2023-05-11T09:29:09.895Z,965.83
2023-05-11T09:30:09.902Z,965.85
2023-05-11T09:31:10.012Z,965.85
2023-05-11T09:32:09.944Z,965.85
2023-05-11T09:33:09.851Z,965.86
2023-05-11T09:34:09.819Z,965.86
2023-05-11T09:35:09.764Z,965.84
2023-05-11T09:36:09.711Z,965.85
2023-05-11T09:37:09.841Z,965.81
2023-05-11T09:38:09.738Z,965.84
2023-05-11T09:39:15.333Z,965.80
2023-05-11T09:40:26.373Z,965.85
2023-05-11T09:41:09.769Z,965.81
2023-05-11T09:42:09.798Z,965.83
2023-05-11T09:43:09.656Z,965.86
2023-05-11T09:44:09.671Z,965.86
2023-05-11T09:45:09.649Z,965.89
2023-05-11T09:46:09.751Z,965.86
2023-05-11T09:47:09.789Z,965.87
2023-05-11T09:48:09.659Z,965.84
2023-05-11T09:49:09.584Z,965.91
2023-05-11T09:50:09.629Z,965.87
2023-05-11T09:51:09.829Z,965.85
2023-05-11T09:52:09.593Z,965.82
2023-05-11T09:53:09.723Z,965.82
2023-05-11T09:54:09.750Z,965.82
2023-05-11T09:55:09.705Z,965.83
2023-05-11T09:56:10.140Z,965.83
2023-05-11T09:57:09.702Z,965.81
2023-05-11T09:58:09.774Z,965.83
2023-05-11T09:59:09.950Z,965.83
2023-05-11T10:00:09.540Z,965.82
2023-05-11T10:01:09.615Z,965.79
2023-05-11T10:02:09.815Z,965.82
2023-05-11T10:03:09.870Z,965.80
2023-05-11T10:04:25.416Z,965.80
2023-05-11T10:05:09.516Z,965.78
2023-05-11T10:06:09.680Z,965.80
2023-05-11T10:07:09.420Z,965.80
2023-05-11T10:08:09.414Z,965.83
2023-05-11T10:09:09.350Z,965.80
2023-05-11T10:10:09.434Z,965.80
2023-05-11T10:11:09.261Z,965.82
2023-05-11T10:12:09.512Z,965.79
2023-05-11T10:13:09.239Z,965.78
2023-05-11T10:14:09.406Z,965.79
2023-05-11T10:15:09.202Z,965.75
2023-05-11T10:16:09.418Z,965.75
2023-05-11T10:17:09.197Z,965.75
2023-05-11T10:18:09.441Z,965.76
2023-05-11T10:19:09.207Z,965.74
2023-05-11T10:20:09.367Z,965.76
2023-05-11T10:21:09.135Z,965.78
2023-05-11T10:22:09.348Z,965.79
2023-05-11T10:23:09.109Z,965.79
2023-05-11T10:24:09.451Z,965.76
2023-05-11T10:25:09.146Z,965.75
2023-05-11T10:26:09.413Z,965.76
2023-05-11T10:27:09.113Z,965.75
2023-05-11T10:28:09.210Z,965.75
2023-05-11T10:29:09.038Z,965.73
2023-05-11T10:30:09.162Z,965.70
2023-05-11T10:31:09.013Z,965.71
2023-05-11T10:32:09.257Z,965.69
2023-05-11T10:33:09.207Z,965.67
2023-05-11T10:34:09.032Z,965.63
2023-05-11T10:35:09.183Z,965.65
2023-05-11T10:36:08.989Z,965.65
2023-05-11T10:37:09.016Z,965.64
2023-05-11T10:38:08.967Z,965.62
2023-05-11T10:39:09.045Z,965.66
2023-05-11T10:40:08.959Z,965.64
2023-05-11T10:41:09.041Z,965.67
2023-05-11T10:42:08.889Z,965.66
2023-05-11T10:43:09.095Z,965.66
2023-05-11T10:44:09.060Z,965.64
2023-05-11T10:45:09.075Z,965.69
2023-05-11T10:46:09.010Z,965.66
2023-05-11T10:47:09.067Z,965.68
2023-05-11T10:48:08.963Z,965.67
2023-05-11T10:49:08.941Z,965.67
2023-05-11T10:50:08.797Z,965.64
2023-05-11T10:51:09.021Z,965.63
2023-05-11T10:52:08.842Z,965.63
2023-05-11T10:53:08.925Z,965.58
2023-05-11T10:54:08.823Z,965.61
2023-05-11T10:55:08.748Z,965.58
2023-05-11T10:56:08.838Z,965.61
2023-05-11T10:57:08.688Z,965.61
2023-05-11T10:58:08.869Z,965.65
2023-05-11T10:59:08.673Z,965.69
2023-05-11T11:00:08.972Z,965.64
2023-05-11T11:01:08.714Z,965.62
2023-05-11T11:02:08.955Z,965.63
2023-05-11T11:03:08.721Z,965.63
2023-05-11T11:04:08.703Z,965.63
2023-05-11T11:05:08.627Z,965.62
2023-05-11T11:06:08.805Z,965.61
2023-05-11T11:07:08.580Z,965.61
2023-05-11T11:08:08.731Z,965.62
2023-05-11T11:09:08.560Z,965.65
2023-05-11T11:10:08.729Z,965.62
2023-05-11T11:11:08.938Z,965.62
2023-05-11T11:12:08.726Z,965.65
2023-05-11T11:13:08.492Z,965.67
2023-05-11T11:14:08.547Z,965.66
2023-05-11T11:15:08.649Z,965.68
2023-05-11T11:16:09.086Z,965.65
2023-05-11T11:17:08.701Z,965.67
2023-05-11T11:18:08.475Z,965.63
2023-05-11T11:19:08.687Z,965.67
2023-05-11T11:20:08.456Z,965.69
2023-05-11T11:21:08.497Z,965.69
2023-05-11T11:22:08.458Z,965.72
2023-05-11T11:23:08.586Z,965.68
2023-05-11T11:24:08.503Z,965.71
2023-05-11T11:25:08.539Z,965.65
2023-05-11T11:26:08.331Z,965.65
2023-05-11T11:27:08.420Z,965.63
2023-05-11T11:28:08.355Z,965.65
2023-05-11T11:29:08.453Z,965.62
2023-05-11T11:30:08.353Z,965.64
2023-05-11T11:31:08.528Z,965.62
2023-05-11T11:32:08.238Z,965.58
2023-05-11T11:33:08.367Z,965.62
2023-05-11T11:34:08.266Z,965.61
2023-05-11T11:35:08.297Z,965.63
2023-05-11T11:36:08.388Z,965.59
2023-05-11T11:37:08.172Z,965.62
2023-05-11T11:38:08.510Z,965.64
2023-05-11T11:39:08.225Z,965.63
2023-05-11T11:40:14.522Z,965.64
2023-05-11T11:41:08.133Z,965.62
2023-05-11T11:42:08.363Z,965.62
2023-05-11T11:43:08.106Z,965.57
2023-05-11T11:44:08.219Z,965.54
2023-05-11T11:45:08.125Z,965.54
2023-05-11T11:46:08.797Z,965.57
2023-05-11T11:47:08.128Z,965.54
2023-05-11T11:48:08.436Z,965.53
2023-05-11T11:49:08.076Z,965.54
2023-05-11T11:50:08.290Z,965.55
2023-05-11T11:51:08.005Z,965.49
2023-05-11T11:52:08.142Z,965.52
2023-05-11T11:53:08.030Z,965.51
2023-05-11T11:54:08.191Z,965.53
2023-05-11T11:55:08.007Z,965.54
2023-05-11T11:56:08.148Z,965.55
2023-05-11T11:57:08.143Z,965.54
2023-05-11T11:58:07.944Z,965.52
2023-05-11T11:59:08.221Z,965.58
2023-05-11T12:00:07.983Z,965.56
2023-05-11T12:01:08.049Z,965.55
2023-05-11T12:02:07.907Z,965.56
2023-05-11T12:03:08.106Z,965.51
2023-05-11T12:04:08.121Z,965.54
2023-05-11T12:05:08.173Z,965.49
2023-05-11T12:06:07.875Z,965.53
2023-05-11T12:07:07.993Z,965.53
2023-05-11T12:08:07.796Z,965.50
2023-05-11T12:09:08.399Z,965.50
2023-05-11T12:10:08.068Z,965.50
2023-05-11T12:11:08.060Z,965.52
2023-05-11T12:12:08.713Z,965.52
2023-05-11T12:13:07.844Z,965.51
2023-05-11T12:14:07.833Z,965.51
2023-05-11T12:15:07.850Z,965.45
2023-05-11T12:16:07.949Z,965.47
2023-05-11T12:17:07.911Z,965.45
2023-05-11T12:18:07.918Z,965.43
2023-05-11T12:19:07.799Z,965.42
2023-05-11T12:20:07.931Z,965.44
2023-05-11T12:21:08.072Z,965.44
2023-05-11T12:22:07.713Z,965.44
2023-05-11T12:23:07.663Z,965.43
2023-05-11T12:24:07.728Z,965.42
2023-05-11T12:25:07.664Z,965.43
2023-05-11T12:26:07.719Z,965.44
2023-05-11T12:27:07.550Z,965.46
2023-05-11T12:28:07.737Z,965.43
2023-05-11T12:29:07.578Z,965.39